Time;durP1;ratioP1;P1;durP2;ratioP2;P2;SDS_P1;SDS_P2;PMS_P1;PMS_P2;Temp;Humidity;BMP_temperature;BMP_pressure;BME280_temperature;BME280_humidity;BME280_pressure;Samples;Min_cycle;Max_cycle;Signal;HPM_P1;HPM_P2
2023/10/10 00:00:35;;;;;;;3.13;2.08;;;;;;;7.66;76.73;98443.78;5053383;28;20057;-80
2023/10/10 00:03:05;;;;;;;2.05;1.85;;;;;;;7.63;76.29;98447.59;5020618;28;20551;-79
2023/10/10 00:05:36;;;;;;;4.18;2.05;;;;;;;7.63;76.40;98450.25;5036161;28;20072;-80
2023/10/10 00:08:08;;;;;;;;;;;;;;;7.87;77.01;98454.66;5019742;28;20056;-79
2023/10/10 00:10:35;;;;;;;3.67;1.80;;;;;;;7.51;76.04;98458.69;5036363;28;19933;-79
2023/10/10 00:13:04;;;;;;;2.53;2.10;;;;;;;7.62;76.27;98458.34;4998164;28;20046;-79
2023/10/10 00:15:37;;;;;;;3.28;1.70;;;;;;;7.60;76.44;98455.88;4966413;28;20046;-77
2023/10/10 00:18:10;;;;;;;2.22;1.92;;;;;;;7.49;76.44;98455.41;4966394;28;20064;-76
2023/10/10 00:20:44;;;;;;;2.10;1.90;;;;;;;7.64;76.41;98457.16;4982672;28;20041;-75
2023/10/10 00:23:16;;;;;;;2.60;1.77;;;;;;;7.60;76.24;98457.69;4985417;28;20059;-80
2023/10/10 00:25:45;;;;;;;;;;;;;;;7.89;76.21;98457.94;4973082;28;20037;-80
2023/10/10 00:28:18;;;;;;;3.88;2.30;;;;;;;7.54;76.03;98468.91;4985690;28;20055;-80
2023/10/10 00:30:45;;;;;;;2.05;1.77;;;;;;;7.62;76.27;98458.34;4952567;28;20087;-78
2023/10/10 00:33:21;;;;;;;3.33;1.98;;;;;;;7.63;76.19;98455.53;4999480;28;20061;-77
2023/10/10 00:35:47;;;;;;;2.60;1.77;;;;;;;7.58;76.32;98463.13;4947877;28;20042;-78
2023/10/10 00:38:24;;;;;;;2.20;1.98;;;;;;;7.60;76.23;98452.38;4976584;28;20554;-78
2023/10/10 00:40:51;;;;;;;3.60;2.47;;;;;;;7.70;76.31;98459.16;4947679;28;20909;-81
2023/10/10 00:43:21;;;;;;;4.40;2.13;;;;;;;7.59;76.25;98462.16;5002534;28;20065;-77
2023/10/10 00:45:55;;;;;;;5.32;2.10;;;;;;;7.68;76.32;98461.13;5016478;28;20129;-77
2023/10/10 00:48:29;;;;;;;2.30;2.08;;;;;;;7.85;76.30;98465.41;5012929;28;20049;-77
2023/10/10 00:51:10;;;;;;;2.33;1.95;;;;;;;7.67;75.76;98475.31;4997615;28;20057;-76
2023/10/10 00:53:39;;;;;;;3.20;2.15;;;;;;;7.72;76.01;98474.84;5011543;28;20095;-77
2023/10/10 00:56:06;;;;;;;3.15;2.00;;;;;;;7.61;76.26;98476.00;4979260;28;20060;-77
2023/10/10 00:58:37;;;;;;;2.85;2.28;;;;;;;7.72;76.32;98466.94;4984956;28;20364;-79
2023/10/10 01:01:08;;;;;;;3.22;2.38;;;;;;;7.76;76.16;98474.34;4977441;28;20050;-77
2023/10/10 01:03:40;;;;;;;2.65;2.10;;;;;;;7.79;75.80;98476.66;4977887;28;20523;-77
2023/10/10 01:06:14;;;;;;;2.20;2.00;;;;;;;7.71;75.99;98476.66;4977287;28;20054;-77
2023/10/10 01:09:03;;;;;;;2.15;1.95;;;;;;;7.75;76.02;98483.25;4993950;28;20054;-77
2023/10/10 01:11:30;;;;;;;2.10;1.90;;;;;;;7.60;75.88;98481.44;4979280;28;20045;-77
2023/10/10 01:14:00;;;;;;;2.40;2.20;;;;;;;7.63;75.94;98486.41;4977404;28;20119;-78
2023/10/10 01:16:29;;;;;;;2.45;2.17;;;;;;;7.80;75.88;98480.09;4977777;28;20148;-77
2023/10/10 01:18:58;;;;;;;2.25;2.05;;;;;;;7.58;75.46;98486.09;4999800;28;20045;-77
2023/10/10 01:21:32;;;;;;;3.15;2.08;;;;;;;7.60;75.81;98484.94;5013201;28;20482;-76
2023/10/10 01:24:11;;;;;;;2.83;2.40;;;;;;;7.59;76.30;98485.09;5012957;28;20037;-77
2023/10/10 01:26:44;;;;;;;2.15;1.95;;;;;;;7.70;76.63;98484.75;4981602;28;20069;-77
2023/10/10 01:29:26;;;;;;;3.05;2.20;;;;;;;7.46;76.62;98488.25;4997261;28;20064;-77
2023/10/10 01:31:52;;;;;;;2.30;2.10;;;;;;;7.36;76.84;98487.59;5012142;28;20119;-78
2023/10/10 01:34:32;;;;;;;2.47;2.03;;;;;;;7.48;76.97;98488.06;5017024;28;20136;-77
2023/10/10 01:37:18;;;;;;;2.22;2.03;;;;;;;7.54;77.00;98497.97;5049559;28;20132;-78
2023/10/10 01:40:00;;;;;;;2.85;2.40;;;;;;;7.60;77.60;98497.31;5033354;28;20348;-78
2023/10/10 01:42:36;;;;;;;3.75;2.10;;;;;;;7.41;77.46;98493.19;5032420;28;20052;-78
2023/10/10 01:45:08;;;;;;;2.55;2.35;;;;;;;7.52;77.76;98489.41;5032584;28;20049;-79
2023/10/10 01:47:39;;;;;;;2.40;2.20;;;;;;;7.30;77.44;98490.06;5018028;28;20048;-78
2023/10/10 01:50:10;;;;;;;3.17;2.20;;;;;;;7.39;77.58;98497.84;5017049;28;20048;-78
2023/10/10 01:52:38;;;;;;;2.10;1.85;;;;;;;7.37;77.58;98506.91;4978566;28;20530;-78
2023/10/10 01:55:10;;;;;;;2.72;1.98;;;;;;;7.44;77.56;98502.63;5009944;28;20239;-78
2023/10/10 01:57:35;;;;;;;2.20;2.00;;;;;;;7.26;77.46;98502.78;4976351;28;20564;-78
2023/10/10 02:00:19;;;;;;;2.20;2.00;;;;;;;7.34;77.82;98501.94;4977020;28;20080;-78
2023/10/10 02:02:50;;;;;;;2.05;1.85;;;;;;;7.48;77.72;98502.13;4979684;28;20156;-80
2023/10/10 02:05:41;;;;;;;5.63;1.90;;;;;;;7.41;77.58;98502.94;4995020;28;20474;-79
2023/10/10 02:08:17;;;;;;;2.58;2.20;;;;;;;7.30;77.25;98501.47;5018840;28;20061;-80
2023/10/10 02:10:47;;;;;;;2.25;1.80;;;;;;;7.40;77.46;98504.75;5001255;28;20045;-81
2023/10/10 02:13:14;;;;;;;2.67;2.47;;;;;;;7.22;77.34;98506.75;5033226;28;20157;-80
2023/10/10 02:15:42;;;;;;;2.22;2.03;;;;;;;7.05;77.38;98514.78;4980463;28;20060;-79
2023/10/10 02:18:23;;;;;;;2.17;1.98;;;;;;;7.24;77.34;98511.84;4981526;28;20077;-78
2023/10/10 02:20:51;;;;;;;2.22;2.03;;;;;;;7.19;76.91;98520.28;5000394;28;20424;-77
2023/10/10 02:23:31;;;;;;;2.53;1.90;;;;;;;7.32;77.16;98511.88;4977828;28;20050;-77
2023/10/10 02:26:03;;;;;;;2.22;2.00;;;;;;;7.36;76.86;98505.25;4976944;28;20278;-77
2023/10/10 02:28:48;;;;;;;3.35;2.05;;;;;;;7.49;76.62;98516.16;4960279;28;20112;-77
2023/10/10 02:31:19;;;;;;;2.10;1.90;;;;;;;7.55;75.95;98521.59;4965068;28;20463;-76
2023/10/10 02:33:50;;;;;;;2.25;1.85;;;;;;;7.56;75.35;98525.06;4981199;28;20076;-76
2023/10/10 02:36:16;;;;;;;2.95;2.08;;;;;;;7.58;75.65;98517.81;4961023;28;20050;-77
2023/10/10 02:38:54;;;;;;;2.20;2.00;;;;;;;7.55;75.79;98521.59;4961005;28;20058;-77
2023/10/10 02:46:38;;;;;;;2.58;2.38;;;;;;;7.52;76.54;98518.47;4986816;28;20054;-79
2023/10/10 02:49:13;;;;;;;3.95;2.05;;;;;;;7.30;77.41;98527.88;4960952;28;20042;-80
2023/10/10 02:51:41;;;;;;;2.50;1.95;;;;;;;7.35;77.80;98525.53;4955059;28;20038;-79
2023/10/10 02:54:34;;;;;;;5.25;2.00;;;;;;;7.40;77.59;98522.41;4970427;28;20115;-78
2023/10/10 03:00:15;;;;;;;2.35;2.15;;;;;;;7.51;77.30;98530.84;5002101;28;20412;-77
2023/10/10 03:02:54;;;;;;;3.20;2.00;;;;;;;7.56;77.54;98528.53;5001731;28;20057;-78
2023/10/10 03:08:15;;;;;;;2.47;2.08;;;;;;;7.40;77.51;98532.97;5021978;28;20049;-78
2023/10/10 03:11:14;;;;;;;3.03;2.33;;;;;;;7.41;77.92;98537.28;5016560;28;20137;-77
2023/10/10 03:13:42;;;;;;;2.45;1.90;;;;;;;7.22;77.91;98527.03;5048257;28;20368;-78
2023/10/10 03:16:40;;;;;;;4.30;2.25;;;;;;;7.18;78.01;98537.09;4994627;28;20073;-80
2023/10/10 03:24:51;;;;;;;5.05;2.35;;;;;;;7.12;78.52;98536.94;5002729;28;20116;-79
2023/10/10 03:27:01;;;;;;;2.10;1.90;;;;;;;7.14;78.41;98541.06;4966639;28;20126;-79
2023/10/10 03:29:37;;;;;;;2.10;1.90;;;;;;;7.08;78.73;98535.59;4992837;28;20042;-79
2023/10/10 03:34:56;;;;;;;3.00;2.38;;;;;;;7.12;79.57;98555.41;4987026;28;20041;-78
2023/10/10 03:39:54;;;;;;;6.70;2.40;;;;;;;7.09;79.17;98555.75;5002960;28;20072;-76
2023/10/10 05:24:43;;;;;;;4.45;2.50;;;;;;;8.09;74.99;98662.78;4995183;28;20048;-74
2023/10/10 05:27:12;;;;;;;5.00;2.80;;;;;;;8.19;74.81;98674.03;5028090;28;20685;-75
2023/10/10 05:29:38;;;;;;;2.88;2.50;;;;;;;8.19;74.55;98674.03;4979131;28;20042;-74
2023/10/10 05:32:08;;;;;;;5.20;2.75;;;;;;;8.22;74.59;98671.06;4962709;28;20454;-76
2023/10/10 05:34:35;;;;;;;4.38;2.47;;;;;;;8.34;74.41;98677.69;5011352;28;20132;-75
2023/10/10 05:37:03;;;;;;;2.85;2.50;;;;;;;8.28;73.98;98678.38;4979460;28;20491;-73
2023/10/10 05:39:32;;;;;;;2.95;2.67;;;;;;;8.31;73.76;98680.66;4994722;28;20128;-75
2023/10/10 05:42:01;;;;;;;3.03;2.53;;;;;;;8.42;73.48;98690.91;4982494;28;20059;-72
2023/10/10 05:44:29;;;;;;;3.13;2.47;;;;;;;8.50;72.86;98696.22;4972906;28;20054;-80
2023/10/10 05:46:55;;;;;;;10.35;2.83;;;;;;;8.54;72.05;98687.75;4924870;28;20178;-75
2023/10/10 05:49:22;;;;;;;5.47;2.40;;;;;;;8.78;71.57;98691.34;4924963;28;20150;-74
2023/10/10 05:51:48;;;;;;;3.38;1.92;;;;;;;8.77;71.01;98690.50;4979418;28;20054;-72
2023/10/10 05:54:14;;;;;;;3.08;1.95;;;;;;;8.83;70.52;98699.59;4979611;28;20464;-71
2023/10/10 05:56:41;;;;;;;6.00;2.40;;;;;;;8.90;70.33;98697.94;4947654;28;20132;-73
2023/10/10 05:59:08;;;;;;;3.13;2.05;;;;;;;9.00;69.76;98696.72;4979454;28;20076;-73
2023/10/10 06:01:36;;;;;;;4.13;1.85;;;;;;;9.05;69.54;98697.06;4979521;28;20409;-73
2023/10/10 06:04:02;;;;;;;3.22;2.13;;;;;;;9.09;69.34;98705.47;4995479;28;20607;-72
2023/10/10 06:06:28;;;;;;;4.53;2.10;;;;;;;9.16;68.95;98701.16;4963224;28;20118;-74
2023/10/10 06:09:01;;;;;;;5.80;2.00;;;;;;;9.15;69.03;98705.59;4963390;28;20084;-74
2023/10/10 06:11:29;;;;;;;4.70;1.90;;;;;;;9.15;68.98;98708.25;4963957;28;20056;-73
2023/10/10 06:13:56;;;;;;;4.85;1.98;;;;;;;9.19;68.66;98714.03;4978896;28;20515;-72
2023/10/10 06:16:23;;;;;;;3.35;2.25;;;;;;;9.26;68.79;98713.19;5011091;28;20118;-73
2023/10/10 06:18:50;;;;;;;2.67;1.85;;;;;;;9.33;68.61;98718.63;5018181;28;20052;-73
2023/10/10 06:21:18;;;;;;;2.70;1.90;;;;;;;9.47;68.43;98724.00;4978868;28;20053;-72
2023/10/10 06:23:45;;;;;;;2.55;1.52;;;;;;;9.48;68.38;98722.19;4962712;28;20065;-72
2023/10/10 06:26:12;;;;;;;1.95;1.70;;;;;;;9.59;68.04;98729.75;5011364;28;20053;-70
2023/10/10 06:28:47;;;;;;;2.03;1.83;;;;;;;9.65;68.11;98726.41;5000919;28;20156;-71
2023/10/10 06:31:19;;;;;;;5.53;2.28;;;;;;;9.87;67.72;98730.94;4998656;28;20057;-71
2023/10/10 06:33:49;;;;;;;4.65;1.70;;;;;;;10.19;67.14;98730.72;4949796;28;20147;-71
2023/10/10 06:38:59;;;;;;;2.73;2.47;;;;;;;10.47;66.00;98744.28;4978755;28;20328;-72
2023/10/10 06:41:35;;;;;;;3.20;2.00;;;;;;;10.61;65.74;98738.19;4978708;28;20139;-70
2023/10/10 06:44:01;;;;;;;4.40;1.63;;;;;;;10.22;64.80;98744.44;5011452;28;20189;-70
2023/10/10 06:46:32;;;;;;;4.35;2.15;;;;;;;10.15;65.31;98735.56;4981102;28;20476;-70
2023/10/10 06:49:04;;;;;;;3.70;2.10;;;;;;;9.97;65.84;98740.31;5030931;28;20507;-70
2023/10/10 06:51:39;;;;;;;3.70;2.10;;;;;;;9.87;66.80;98745.00;5014322;28;20050;-73
2023/10/10 06:54:09;;;;;;;3.72;2.30;;;;;;;9.85;67.16;98748.84;4998165;28;20880;-73
2023/10/10 06:56:45;;;;;;;7.43;3.40;;;;;;;9.80;67.44;98745.88;4997710;28;20511;-72
2023/10/10 06:59:20;;;;;;;5.50;2.47;;;;;;;9.68;67.06;98747.28;5008406;28;20060;-75
2023/10/10 07:01:47;;;;;;;8.52;3.38;;;;;;;9.75;67.45;98751.69;5030077;28;20141;-74
2023/10/10 07:04:13;;;;;;;4.18;2.22;;;;;;;9.77;66.97;98755.00;4998195;28;20190;-73
2023/10/10 07:06:44;;;;;;;2.10;1.80;;;;;;;9.90;66.85;98757.91;5014328;28;20103;-74
2023/10/10 07:09:14;;;;;;;4.50;2.50;;;;;;;9.87;66.42;98765.41;4982404;28;20068;-72
2023/10/10 07:11:42;;;;;;;2.40;1.88;;;;;;;9.86;65.52;98759.28;4997762;28;20135;-73
2023/10/10 07:14:10;;;;;;;2.58;1.88;;;;;;;9.83;65.10;98756.97;4997889;28;20553;-72
2023/10/10 07:16:42;;;;;;;2.60;1.90;;;;;;;9.89;64.57;98771.34;4997614;28;20056;-71
2023/10/10 07:19:21;;;;;;;5.85;1.77;;;;;;;10.04;64.47;98769.63;4998321;28;20076;-73
2023/10/10 07:21:51;;;;;;;1.70;1.60;;;;;;;10.04;64.00;98765.13;4997086;28;20064;-71
2023/10/10 07:24:18;;;;;;;2.40;1.58;;;;;;;10.16;63.86;98766.38;4997750;28;20140;-70
2023/10/10 07:26:47;;;;;;;3.17;1.83;;;;;;;10.39;62.59;98773.53;4997496;28;20050;-73
2023/10/10 07:29:30;;;;;;;5.45;1.75;;;;;;;10.35;61.54;98772.25;5013555;28;20067;-72
2023/10/10 07:34:42;;;;;;;3.80;1.70;;;;;;;10.37;60.92;98772.88;5051528;28;20037;-71
2023/10/10 07:37:09;;;;;;;4.85;1.65;;;;;;;10.48;61.36;98786.56;5035631;28;20091;-74
2023/10/10 07:42:34;;;;;;;1.50;1.40;;;;;;;10.48;61.11;98786.56;4993222;28;20049;-73
2023/10/10 07:45:14;;;;;;;2.38;1.90;;;;;;;10.48;60.84;98788.38;5033141;28;20091;-73
2023/10/10 07:50:55;;;;;;;4.22;2.10;;;;;;;10.56;60.60;98797.13;5015320;28;20055;-72
2023/10/10 07:53:28;;;;;;;2.10;1.50;;;;;;;10.60;60.80;98794.94;4986542;28;20107;-71
2023/10/10 07:58:24;;;;;;;3.33;1.80;;;;;;;10.39;60.63;98805.38;5012542;28;20049;-74
2023/10/10 08:01:09;;;;;;;1.70;1.48;;;;;;;10.53;60.63;98801.97;5013336;28;20045;-74
2023/10/10 08:03:35;;;;;;;1.50;1.40;;;;;;;10.37;60.90;98800.25;4997509;28;20089;-73
2023/10/10 08:06:08;;;;;;;5.07;1.98;;;;;;;10.51;61.07;98802.13;4996704;28;20151;-77
2023/10/10 08:08:36;;;;;;;5.75;1.60;;;;;;;10.44;60.66;98803.84;5029122;28;20104;-74
2023/10/10 08:11:12;;;;;;;2.33;1.52;;;;;;;10.37;60.89;98810.88;4979068;28;20041;-74
2023/10/10 08:13:48;;;;;;;2.63;1.33;;;;;;;10.41;60.97;98814.00;5010534;28;20045;-71
2023/10/10 08:16:21;;;;;;;2.20;1.92;;;;;;;10.30;61.45;98819.72;4980658;28;20061;-72
2023/10/10 08:18:52;;;;;;;2.45;1.73;;;;;;;10.33;61.67;98820.19;4979132;28;20057;-71
2023/10/10 08:21:22;;;;;;;;;;;;;;;10.31;61.83;98822.19;4976716;28;20141;-71
2023/10/10 08:23:59;;;;;;;2.85;1.90;;;;;;;10.24;62.31;98818.56;4971756;28;19916;-71
2023/10/10 08:26:29;;;;;;;4.03;2.00;;;;;;;10.18;62.38;98824.59;4973067;28;20069;-71
2023/10/10 08:31:54;;;;;;;5.80;3.97;;;;;;;10.07;62.24;98828.47;4972825;28;20042;-73
2023/10/10 08:34:20;;;;;;;2.20;2.00;;;;;;;10.05;62.28;98832.28;4984969;28;20050;-72
2023/10/10 08:36:48;;;;;;;2.55;1.58;;;;;;;9.99;62.23;98832.97;4957937;28;20112;-71
2023/10/10 08:41:43;;;;;;;3.67;1.95;;;;;;;9.82;62.92;98840.19;4941383;28;20068;-72
2023/10/10 08:44:11;;;;;;;3.33;1.70;;;;;;;9.75;63.34;98847.16;4940891;28;20050;-73
2023/10/10 08:46:46;;;;;;;2.17;1.98;;;;;;;9.82;63.47;98848.13;4972847;28;20054;-72
2023/10/10 08:49:14;;;;;;;2.70;1.90;;;;;;;9.80;63.86;98844.81;4954785;28;20192;-73
2023/10/10 08:51:49;;;;;;;3.60;2.00;;;;;;;9.95;63.70;98843.09;4958898;28;20116;-72
2023/10/10 08:54:17;;;;;;;3.20;1.73;;;;;;;9.96;62.86;98847.38;4916546;29;20063;-73
2023/10/10 08:56:59;;;;;;;2.20;1.70;;;;;;;9.98;62.64;98856.00;4916161;29;20083;-73
2023/10/10 08:59:28;;;;;;;2.35;1.73;;;;;;;10.00;62.14;98858.47;4902058;29;20242;-72
2023/10/10 09:02:16;;;;;;;3.97;1.70;;;;;;;10.17;62.19;98860.09;4932109;29;20130;-74
2023/10/10 09:04:50;;;;;;;3.28;1.80;;;;;;;10.08;62.13;98863.78;4893469;29;20128;-74
2023/10/10 09:07:32;;;;;;;4.03;1.50;;;;;;;9.94;62.35;98872.44;4862808;29;20060;-72
2023/10/10 09:10:05;;;;;;;1.90;1.50;;;;;;;10.01;61.74;98874.22;4880716;29;20056;-72
2023/10/10 09:12:52;;;;;;;2.63;1.63;;;;;;;10.22;61.50;98879.78;4861398;29;20052;-71
2023/10/10 09:15:19;;;;;;;2.83;1.65;;;;;;;10.14;61.20;98879.00;4877049;29;20056;-72
2023/10/10 09:17:46;;;;;;;3.47;1.60;;;;;;;10.19;61.17;98871.38;4862237;29;20069;-71
2023/10/10 09:20:23;;;;;;;1.63;1.50;;;;;;;10.28;61.38;98870.31;4886638;29;20115;-72
2023/10/10 09:22:56;;;;;;;4.15;1.42;;;;;;;10.15;61.42;98881.50;4895457;29;20059;-71
2023/10/10 09:25:31;;;;;;;1.45;1.35;;;;;;;10.27;61.18;98884.59;4880197;29;20056;-71
2023/10/10 09:28:04;;;;;;;5.65;1.50;;;;;;;10.36;61.00;98883.53;4881450;29;20052;-71
2023/10/10 09:30:59;;;;;;;3.33;1.80;;;;;;;10.37;60.61;98884.34;4879724;29;20194;-72
2023/10/10 09:33:27;;;;;;;4.57;1.92;;;;;;;10.45;60.31;98873.69;4899348;29;20519;-72
2023/10/10 09:35:59;;;;;;;6.13;2.03;;;;;;;10.60;59.39;98885.19;4941718;28;20034;-72
2023/10/10 09:38:36;;;;;;;8.82;2.40;;;;;;;10.68;59.55;98885.16;5019726;28;20054;-72
2023/10/10 09:41:27;;;;;;;4.05;2.00;;;;;;;10.70;59.30;98881.31;5030007;28;20037;-72
2023/10/10 09:48:17;;;;;;;7.15;2.75;;;;;;;10.74;59.11;98898.56;5030350;28;20099;-72
2023/10/10 09:49:52;;;;;;;15.02;3.47;;;;;;;10.56;58.92;98889.22;4989747;28;20168;-72
2023/10/10 09:58:00;;;;;;;3.85;2.47;;;;;;;10.69;59.46;98895.59;4996015;28;20352;-72
2023/10/10 10:01:04;;;;;;;5.32;2.28;;;;;;;10.62;59.04;98901.78;4981606;28;20136;-72
2023/10/10 10:06:34;;;;;;;8.23;4.40;;;;;;;10.60;60.36;98896.66;5012698;28;20049;-72
2023/10/10 10:09:17;;;;;;;11.32;5.10;;;;;;;10.61;59.97;98906.25;5029581;28;20041;-71
2023/10/10 10:11:49;;;;;;;3.03;2.55;;;;;;;10.57;60.17;98902.31;4996080;28;20072;-72
2023/10/10 10:14:36;;;;;;;5.80;2.40;;;;;;;10.62;60.57;98901.78;5029057;28;20061;-72
2023/10/10 10:17:23;;;;;;;3.13;2.00;;;;;;;10.47;60.96;98912.31;5012257;28;20122;-72
2023/10/10 10:19:50;;;;;;;2.40;1.95;;;;;;;10.06;61.37;98901.06;5011518;28;20049;-71
2023/10/10 10:22:21;;;;;;;2.75;2.08;;;;;;;9.99;61.89;98908.03;5011873;28;20045;-72
2023/10/10 10:24:47;;;;;;;2.00;1.80;;;;;;;9.97;61.99;98919.84;4995465;28;20052;-71
2023/10/10 10:27:39;;;;;;;7.32;2.10;;;;;;;9.97;61.85;98925.16;4996297;28;20061;-71
2023/10/10 10:32:48;;;;;;;4.75;1.70;;;;;;;9.95;61.74;98921.81;4972542;28;20046;-71
2023/10/10 10:35:44;;;;;;;8.13;1.63;;;;;;;10.06;61.69;98929.41;4972460;28;20046;-71
2023/10/10 10:38:10;;;;;;;3.47;1.48;;;;;;;9.77;61.24;98919.41;4972296;28;20042;-71
2023/10/10 10:40:44;;;;;;;1.40;1.30;;;;;;;9.86;61.60;98928.16;4988511;28;20093;-71
2023/10/10 10:43:20;;;;;;;4.97;1.83;;;;;;;10.15;61.86;98925.75;4972374;28;20077;-72
2023/10/10 10:45:51;;;;;;;2.95;1.52;;;;;;;10.34;60.83;98929.81;4972298;28;20125;-72
2023/10/10 10:51:41;;;;;;;2.53;1.83;;;;;;;11.20;58.14;98933.88;4971939;28;20042;-71
2023/10/10 10:53:59;;;;;;;3.60;2.45;;;;;;;11.27;56.99;98942.81;4939677;28;20050;-71
2023/10/10 10:59:19;;;;;;;4.00;1.33;;;;;;;11.37;54.88;98938.91;4971625;28;20081;-72
2023/10/10 11:01:51;;;;;;;1.52;1.30;;;;;;;11.26;54.79;98938.50;4955427;28;20055;-70
2023/10/10 11:07:07;;;;;;;1.83;1.52;;;;;;;-141.23;100.00;62281.09;4993540;28;20107;-70
2023/10/10 11:09:36;;;;;;;4.05;1.73;;;;;;;-141.23;100.00;62281.09;5016646;28;20049;-72
2023/10/10 11:12:05;;;;;;;3.95;1.90;;;;;;;-141.23;100.00;62281.09;5013955;28;20924;-76
2023/10/10 11:14:32;;;;;;;2.58;1.77;;;;;;;-141.23;100.00;62281.09;5014488;28;20053;-76
2023/10/10 11:17:00;;;;;;;4.90;1.90;;;;;;;-141.23;100.00;62281.09;4997853;28;20045;-74
2023/10/10 11:22:01;;;;;;;3.45;2.05;;;;;;;-141.23;100.00;62281.09;5018239;28;20053;-74
2023/10/10 11:24:29;;;;;;;4.20;1.70;;;;;;;-141.23;100.00;62281.09;4983620;28;20143;-68
2023/10/10 11:27:13;;;;;;;3.42;2.05;;;;;;;-141.23;100.00;62281.09;5014127;28;20520;-70
2023/10/10 11:29:47;;;;;;;3.35;1.50;;;;;;;-141.23;100.00;62281.09;4998199;28;20037;-68
2023/10/10 11:32:25;;;;;;;2.20;1.52;;;;;;;-141.23;100.00;62281.09;4998472;28;20040;-68
2023/10/10 11:34:57;;;;;;;4.45;1.77;;;;;;;-141.23;100.00;62281.09;4998411;28;20037;-68
2023/10/10 11:37:31;;;;;;;5.05;1.92;;;;;;;-141.23;100.00;62281.09;5030306;28;20204;-69
2023/10/10 11:40:20;;;;;;;4.70;2.10;;;;;;;-141.23;100.00;62281.09;4999310;28;20102;-68
2023/10/10 11:42:47;;;;;;;4.32;1.63;;;;;;;-141.23;100.00;62281.09;5016375;28;20045;-68
2023/10/10 11:45:19;;;;;;;3.97;1.67;;;;;;;-141.23;100.00;62281.09;5015340;28;20051;-69
2023/10/10 11:47:47;;;;;;;3.80;2.08;;;;;;;-141.23;100.00;62281.09;4982708;28;20103;-71
2023/10/10 11:50:17;;;;;;;2.88;1.70;;;;;;;-141.23;100.00;62281.09;5031561;28;20044;-72
2023/10/10 11:52:52;;;;;;;2.25;1.80;;;;;;;-141.23;100.00;62281.09;5033827;28;20430;-71
2023/10/10 11:55:22;;;;;;;4.15;1.50;;;;;;;-141.23;100.00;62281.09;5033961;28;20064;-70
2023/10/10 11:57:57;;;;;;;5.90;1.70;;;;;;;-141.23;100.00;62281.09;5050719;28;20045;-72
2023/10/10 12:03:31;;;;;;;1.83;1.55;;;;;;;-141.23;100.00;62281.09;5005368;28;20506;-73
2023/10/10 12:05:59;;;;;;;6.07;1.75;;;;;;;-141.23;100.00;62281.09;5015921;28;20045;-72
2023/10/10 12:08:25;;;;;;;2.80;1.80;;;;;;;-141.23;100.00;62281.09;5031420;28;20142;-72
2023/10/10 12:10:56;;;;;;;3.80;1.67;;;;;;;-141.23;100.00;62281.09;5013720;28;20044;-70
2023/10/10 12:13:44;;;;;;;1.85;1.50;;;;;;;-141.23;100.00;62281.09;4981661;28;20510;-72
2023/10/10 12:16:10;;;;;;;1.90;1.50;;;;;;;-141.23;100.00;62281.09;5030128;28;20073;-72
2023/10/10 12:18:45;;;;;;;2.95;1.70;;;;;;;-141.23;100.00;62281.09;5013739;28;20564;-72
2023/10/10 12:21:22;;;;;;;4.32;1.67;;;;;;;-141.23;100.00;62281.09;5029704;28;20041;-71
2023/10/10 12:24:06;;;;;;;3.75;1.77;;;;;;;-141.23;100.00;62281.09;5015370;28;20037;-71
2023/10/10 12:26:38;;;;;;;2.25;1.85;;;;;;;-141.23;100.00;62281.09;4996943;28;20116;-72
2023/10/10 12:29:04;;;;;;;5.88;2.50;;;;;;;-141.23;100.00;62281.09;4996865;28;20041;-71
2023/10/10 12:31:33;;;;;;;2.85;2.22;;;;;;;-141.23;100.00;62281.09;4996524;28;20203;-72
2023/10/10 12:34:00;;;;;;;3.60;1.90;;;;;;;-141.23;100.00;62281.09;5014103;28;20467;-72
2023/10/10 12:36:28;;;;;;;7.80;1.70;;;;;;;-141.23;100.00;62281.09;4997025;28;20045;-73
2023/10/10 12:38:57;;;;;;;17.25;2.67;;;;;;;-141.23;100.00;62281.09;4997192;28;20136;-73
2023/10/10 12:41:23;;;;;;;6.28;1.80;;;;;;;-141.23;100.00;62281.09;5010682;28;20063;-70
2023/10/10 12:43:49;;;;;;;3.15;1.80;;;;;;;-141.23;100.00;62281.09;5030684;28;20053;-71
2023/10/10 12:46:20;;;;;;;1.50;1.40;;;;;;;-141.23;100.00;62281.09;5028586;28;20049;-71
2023/10/10 12:48:51;;;;;;;3.13;1.90;;;;;;;-141.23;100.00;62281.09;5030295;28;20051;-71
2023/10/10 12:51:19;;;;;;;2.83;1.60;;;;;;;-141.23;100.00;62281.09;5015974;28;20111;-70
2023/10/10 12:53:46;;;;;;;3.50;1.50;;;;;;;-141.23;100.00;62281.09;5031155;28;20045;-71
2023/10/10 12:56:16;;;;;;;2.17;1.30;;;;;;;-141.23;100.00;62281.09;5031493;28;20156;-72
2023/10/10 12:58:57;;;;;;;3.53;1.58;;;;;;;-141.23;100.00;62281.09;5016276;28;20493;-71
2023/10/10 13:01:23;;;;;;;4.55;2.00;;;;;;;-141.23;100.00;62281.09;5031704;28;20057;-71
2023/10/10 13:03:50;;;;;;;5.25;2.50;;;;;;;-141.23;100.00;62281.09;5015927;28;20131;-70
2023/10/10 13:06:17;;;;;;;4.28;1.77;;;;;;;-141.23;100.00;62281.09;5016153;28;20560;-71
2023/10/10 13:08:55;;;;;;;5.40;1.58;;;;;;;-141.23;100.00;62281.09;5015680;28;20057;-72
2023/10/10 13:11:43;;;;;;;3.30;1.60;;;;;;;-141.23;100.00;62281.09;5002644;28;20040;-71
2023/10/10 13:14:14;;;;;;;2.03;1.58;;;;;;;-141.23;100.00;62281.09;5072089;28;20059;-71
2023/10/10 13:19:11;;;;;;;2.13;1.40;;;;;;;-141.23;100.00;62281.09;5068918;28;20151;-72
2023/10/10 13:21:40;;;;;;;4.05;1.60;;;;;;;-141.23;100.00;62281.09;5052091;28;20051;-71
2023/10/10 13:24:11;;;;;;;2.50;1.65;;;;;;;-141.23;100.00;62281.09;5053896;28;20032;-71
2023/10/10 13:26:38;;;;;;;;;;;;;;;-141.23;100.00;62281.09;5071227;28;20109;-71
2023/10/10 13:29:05;;;;;;;3.65;1.90;;;;;;;-141.23;100.00;62281.09;5052534;28;20025;-71
2023/10/10 13:31:31;;;;;;;3.10;1.77;;;;;;;-141.23;100.00;62281.09;5069306;28;20068;-70
2023/10/10 13:33:58;;;;;;;4.18;1.70;;;;;;;-141.23;100.00;62281.09;5035941;28;20047;-72
2023/10/10 13:36:25;;;;;;;4.22;1.40;;;;;;;-141.23;100.00;62281.09;5068706;28;20124;-72
2023/10/10 13:38:59;;;;;;;2.03;1.40;;;;;;;-141.23;100.00;62281.09;5069160;28;20378;-71
2023/10/10 13:41:29;;;;;;;1.50;1.27;;;;;;;-141.23;100.00;62281.09;5053256;28;20052;-71
2023/10/10 13:43:59;;;;;;;5.15;1.60;;;;;;;-141.23;100.00;62281.09;5052708;28;20529;-71
2023/10/10 13:46:32;;;;;;;3.75;1.35;;;;;;;-141.23;100.00;62281.09;5053082;28;20474;-71
2023/10/10 13:48:59;;;;;;;16.10;2.00;;;;;;;-141.23;100.00;62281.09;5069200;28;20045;-71
2023/10/10 13:51:28;;;;;;;1.42;1.30;;;;;;;-141.23;100.00;62281.09;5035571;28;20576;-70
2023/10/10 13:53:56;;;;;;;1.65;1.30;;;;;;;-141.23;100.00;62281.09;5052858;28;20044;-71
2023/10/10 13:56:22;;;;;;;4.75;1.45;;;;;;;-141.23;100.00;62281.09;5068820;28;20339;-70
2023/10/10 13:58:48;;;;;;;1.30;1.20;;;;;;;-141.23;100.00;62281.09;5052731;28;20047;-72
2023/10/10 14:03:48;;;;;;;1.98;1.33;;;;;;;-141.23;100.00;62281.09;5089254;28;20053;-70
2023/10/10 14:06:26;;;;;;;3.22;1.48;;;;;;;-141.23;100.00;62281.09;5073337;28;20056;-71
2023/10/10 14:08:57;;;;;;;1.75;1.40;;;;;;;-141.23;100.00;62281.09;5072728;28;20139;-68
2023/10/10 14:11:23;;;;;;;6.38;1.70;;;;;;;-141.23;100.00;62281.09;5053471;28;20056;-68
2023/10/10 14:13:53;;;;;;;3.55;1.65;;;;;;;-141.23;100.00;62281.09;5019086;28;20047;-70
2023/10/10 14:16:20;;;;;;;2.20;1.45;;;;;;;-141.23;100.00;62281.09;5035724;28;20040;-70
2023/10/10 14:18:47;;;;;;;2.38;1.73;;;;;;;-141.23;100.00;62281.09;5069410;28;20045;-70
2023/10/10 14:21:23;;;;;;;3.25;1.58;;;;;;;-141.23;100.00;62281.09;5053351;28;20044;-69
2023/10/10 14:23:49;;;;;;;3.28;1.50;;;;;;;-141.23;100.00;62281.09;5053146;28;20052;-68
2023/10/10 14:26:27;;;;;;;2.72;1.42;;;;;;;-141.23;100.00;62281.09;5052898;28;20041;-68
2023/10/10 14:28:54;;;;;;;3.72;1.70;;;;;;;-141.23;100.00;62281.09;5053994;28;20132;-68
2023/10/10 14:31:22;;;;;;;2.55;1.58;;;;;;;-141.23;100.00;62281.09;5053496;28;20041;-67
2023/10/10 14:33:48;;;;;;;2.83;1.52;;;;;;;-141.23;100.00;62281.09;5051557;28;20064;-70
2023/10/10 14:36:16;;;;;;;2.08;1.48;;;;;;;-141.23;100.00;62281.09;5052324;28;20037;-70
2023/10/10 14:38:46;;;;;;;2.58;1.83;;;;;;;-141.23;100.00;62281.09;5051284;28;20383;-69
2023/10/10 14:41:12;;;;;;;3.25;1.50;;;;;;;-141.23;100.00;62281.09;5052549;28;20498;-68
2023/10/10 14:43:38;;;;;;;1.73;1.40;;;;;;;-141.23;100.00;62281.09;5050874;28;20076;-69
2023/10/10 14:46:04;;;;;;;2.25;1.25;;;;;;;-141.23;100.00;62281.09;5051147;28;20045;-68
2023/10/10 14:48:33;;;;;;;2.33;1.45;;;;;;;-141.23;100.00;62281.09;5034723;28;20036;-70
2023/10/10 14:51:05;;;;;;;5.15;1.40;;;;;;;-141.23;100.00;62281.09;5034453;28;20156;-69